Buoy 13570

sailwx.info

Track history (hours):
 
Tides and Currents Weather Stations Pressure Air Temp Water Temp Dewpoint Dewpoint Depression Visibility Wind Speed Wind Dir Waves Ship Positions

Drifting buoy 13570

Last reported at 2015-Feb-28 17:00 UTC. Time now 2015-Feb-28 19:17 UTC.
Position N 34°03' W 027°15'.

Barometer 1036.1 mb
Water temperature 18.1 ° C

Date/timePositionNaut miles runAvg speedWind from/ knotsBaromVisibWave heightAir tempDewpointWater temp
2015-Feb-28 17:00N 34°03' W 027°15'1 0.6 1036.1 18.1
2015-Feb-28 16:00N 34°03' W 027°15'1 1.0 1036.4 18.1
2015-Feb-28 15:00N 34°04' W 027°16'0 0.0 1037.0 18.1
2015-Feb-28 14:00N 34°04' W 027°16'1 0.7 1037.7 18.1
2015-Feb-28 13:00N 34°04' W 027°17'1 0.8 1038.4 18.1
2015-Feb-28 12:00N 34°05' W 027°17'0 0.3 1038.6 18.1
2015-Feb-28 11:00N 34°05' W 027°17'1 1.4 1038.4 18.1
2015-Feb-28 10:00N 34°07' W 027°18'3 0.7 1038.3 18.1
2015-Feb-28 06:00N 34°09' W 027°19'0 0.0 1036.4 18.1
2015-Feb-28 05:00N 34°09' W 027°19'2 0.8 1036.2 18.1
2015-Feb-28 03:00N 34°10' W 027°21'1 0.3 1037.3 18.1
2015-Feb-27 23:00N 34°11' W 027°22'2 2.2 1038.7 18.1
2015-Feb-27 22:00N 34°13' W 027°23'2 0.4 1038.6 18.1
2015-Feb-27 18:00N 34°14' W 027°24'1 0.8 1037.0 18.1
2015-Feb-27 17:00N 34°14' W 027°25'0 0.0 1037.0 18.1
2015-Feb-27 16:00N 34°14' W 027°25'1 0.7 1037.0 18.1
2015-Feb-27 14:00N 34°15' W 027°26'1 0.8 1037.8 18.1
2015-Feb-27 13:00N 34°15' W 027°27'1 0.5 1038.3 18.1
2015-Feb-27 12:00N 34°15' W 027°27'3 0.7 1038.4 18.1
2015-Feb-27 08:00N 34°18' W 027°27'2 0.9 1036.7 18.1
2015-Feb-27 06:00N 34°19' W 027°29'0 0.0 1036.0 18.2
2015-Feb-27 05:00N 34°19' W 027°29'5 0.5 1036.0 18.2
2015-Feb-26 20:00N 34°22' W 027°33'1 0.8 1036.3 18.2
2015-Feb-26 19:00N 34°22' W 027°34'0 0.3 1035.9 18.2
2015-Feb-26 18:00N 34°22' W 027°34'0 0.0 1035.7 18.2
2015-Feb-26 16:00N 34°22' W 027°34'1 0.7 1035.9 18.1
2015-Feb-26 15:00N 34°22' W 027°35'0 0.0 1036.3 18.1
2015-Feb-26 14:00N 34°22' W 027°35'2 0.9 1037.0 18.1
2015-Feb-26 12:00N 34°24' W 027°35'1 0.9 1037.4 18.1
2015-Feb-26 11:00N 34°25' W 027°36'0 0.1 1037.4 18.0
2015-Feb-26 10:00N 34°25' W 027°36'1 1.2 1037.2 18.1
2015-Feb-26 09:00N 34°25' W 027°37'1 0.6 1036.8 18.1
2015-Feb-26 08:00N 34°25' W 027°37'1 0.4 1036.5 18.1
2015-Feb-26 06:00N 34°25' W 027°38'0 0.0 1036.5 18.2
2015-Feb-26 05:00N 34°25' W 027°38'0 0.2 1036.5 18.2
2015-Feb-26 03:00N 34°26' W 027°38'3 2.6 1037.2 18.2
2015-Feb-26 02:00N 34°28' W 027°38'0 0.0 1037.6 18.2
2015-Feb-26 00:00N 34°28' W 027°38'1 0.6 1037.9 18.2
2015-Feb-25 23:00N 34°29' W 027°39'1 1.3 1038.0 18.3
2015-Feb-25 22:00N 34°30' W 027°40'2 2.3 1037.8 18.3
2015-Feb-25 21:00N 34°29' W 027°43'0 0.0 1037.5 18.3
2015-Feb-25 20:00N 34°29' W 027°43'1 0.5 1037.2 18.3
2015-Feb-25 18:00N 34°28' W 027°42'0 0.0 1036.7 18.3
2015-Feb-25 17:00N 34°28' W 027°42'0 0.3 1036.6 18.3
2015-Feb-25 16:00N 34°28' W 027°42'2 2.2 1036.5 18.3
2015-Feb-25 15:00N 34°29' W 027°40'2 0.8 1036.9 18.3
2015-Feb-25 12:00N 34°30' W 027°42'1 0.6 1038.1 18.3
2015-Feb-25 11:00N 34°31' W 027°42'1 0.5 1038.0 18.3
2015-Feb-25 09:00N 34°31' W 027°43'1 0.5 1037.4 18.3
2015-Feb-25 07:00N 34°31' W 027°44'1 0.5 1036.6 18.3
2015-Feb-25 06:00N 34°31' W 027°45'0 0.0 1036.4 18.3
2015-Feb-25 05:00N 34°31' W 027°45'1 0.5 1036.4 18.3
2015-Feb-25 03:00N 34°32' W 027°46'1 0.3 1037.0 18.3
2015-Feb-25 00:00N 34°33' W 027°46'0 0.4 1037.5 18.3
2015-Feb-24 23:00N 34°32' W 027°47'1 0.9 1037.7 18.3
2015-Feb-24 22:00N 34°32' W 027°47'1 0.7 1037.6 18.3
2015-Feb-24 21:00N 34°32' W 027°47'0 0.0 1037.3 18.3
2015-Feb-24 20:00N 34°32' W 027°47'0 0.0 1036.9 18.3
2015-Feb-24 19:00N 34°32' W 027°47'1 0.5 1036.6 18.4
2015-Feb-24 17:00N 34°33' W 027°48'1 0.9 1036.0 18.4
2015-Feb-24 16:00N 34°32' W 027°48'2 1.6 1035.8 18.4
2015-Feb-24 15:00N 34°34' W 027°48'0 0.1 1036.1 18.4
2015-Feb-24 11:00N 34°34' W 027°49'1 1.0 1036.9 18.3
2015-Feb-24 10:00N 34°34' W 027°50'0 0.0 1036.5 18.3
2015-Feb-24 09:00N 34°34' W 027°50'0 0.2 1035.9 18.3
2015-Feb-24 07:00N 34°34' W 027°50'0 0.2 1034.7 18.3
2015-Feb-24 06:00N 34°34' W 027°50'0 0.4 1034.4 18.3
2015-Feb-24 05:00N 34°34' W 027°50'0 0.2 1034.4 18.3
2015-Feb-24 03:00N 34°34' W 027°50'0 0.0 1035.2 18.3
2015-Feb-24 02:00N 34°34' W 027°50'0 0.2 1035.6 18.3
2015-Feb-24 00:00N 34°35' W 027°50'0 0.3 1035.7 18.3
2015-Feb-23 23:00N 34°35' W 027°50'1 0.7 1035.7 18.4
2015-Feb-23 22:00N 34°35' W 027°49'1 0.3 1035.1 18.4
2015-Feb-23 20:00N 34°35' W 027°50'0 0.2 1034.1 18.5
2015-Feb-23 19:00N 34°36' W 027°50'1 0.4 1033.5 18.5
2015-Feb-23 17:00N 34°36' W 027°50'0 0.1 1033.1 18.7
2015-Feb-23 16:00N 34°36' W 027°50'2 1.8 1033.0 18.8
2015-Feb-23 15:00N 34°38' W 027°51'0 0.1 1033.5 19.0
2015-Feb-23 13:00N 34°38' W 027°51'0 0.5 1034.8 18.4
2015-Feb-23 12:00N 34°38' W 027°51'2 0.9 1034.9 18.3
2015-Feb-23 10:00N 34°37' W 027°53'0 0.0 1034.5 18.2
2015-Feb-23 09:00N 34°37' W 027°53'1 0.4 1034.2 18.2
2015-Feb-23 07:00N 34°38' W 027°52'0 0.2 1033.7 18.3
2015-Feb-23 06:00N 34°38' W 027°52'0 0.1 1033.5 18.3
2015-Feb-23 05:00N 34°38' W 027°52'1 0.6 1033.1 18.3
2015-Feb-23 04:00N 34°38' W 027°52'2 0.4 1033.1 18.3
2015-Feb-22 23:00N 34°40' W 027°52'2 1.9 1034.9 18.3
2015-Feb-22 22:00N 34°38' W 027°53'2 1.9 1035.0 18.3
2015-Feb-22 21:00N 34°40' W 027°53'0 0.0 1034.9 18.3
2015-Feb-22 20:00N 34°40' W 027°53'1 0.8 1034.3 18.3
2015-Feb-22 19:00N 34°41' W 027°53'1 0.4 1034.0 18.3
2015-Feb-22 17:00N 34°42' W 027°53'0 0.2 1034.0 18.3
2015-Feb-22 15:00N 34°42' W 027°53'1 1.0 1034.5 18.3
2015-Feb-22 14:00N 34°43' W 027°54'0 0.5 1034.9 18.3
2015-Feb-22 13:00N 34°42' W 027°54'1 0.6 1035.6 18.3
2015-Feb-22 12:00N 34°42' W 027°55'1 0.3 1035.7 18.3
2015-Feb-22 10:00N 34°42' W 027°54'0 0.2 1035.5 18.3
2015-Feb-22 08:00N 34°42' W 027°54'0 0.2 1034.7 18.3
2015-Feb-22 07:00N 34°42' W 027°53'1 1.3 1034.6 18.3
2015-Feb-22 06:00N 34°43' W 027°53'3 2.7 1034.3 18.3
2015-Feb-22 05:00N 34°46' W 027°54'0 0.0 1034.6 18.3
2015-Feb-22 04:00N 34°46' W 027°54'0 0.0 1035.0 18.3
2015-Feb-22 03:00N 34°46' W 027°54'0 0.0 1035.4 18.3
2015-Feb-22 02:00N 34°46' W 027°54'0 0.2 1035.7 18.3
2015-Feb-22 00:00N 34°45' W 027°54'1 0.6 1036.3 18.4
2015-Feb-21 23:00N 34°46' W 027°55'1 0.1 1036.4 18.3
2015-Feb-21 16:00N 34°46' W 027°55'1 0.1 1035.3 18.4
2015-Feb-21 11:00N 34°47' W 027°54'2 0.5 1037.4 18.2
2015-Feb-21 06:00N 34°49' W 027°52'1 1.1 1035.7 18.2
2015-Feb-21 05:00N 34°50' W 027°52'2 0.4 1035.8 18.2
2015-Feb-20 23:00N 34°52' W 027°54'1 0.7 1037.4 18.2
2015-Feb-20 21:00N 34°53' W 027°54'0 0.0 1037.1 18.2
2015-Feb-20 20:00N 34°53' W 027°54'0 0.3 1037.0 18.2
2015-Feb-20 19:00N 34°53' W 027°54'0 0.0 1036.3 18.2
2015-Feb-20 18:00N 34°53' W 027°54'0 0.2 1036.3 18.3
2015-Feb-20 17:00N 34°53' W 027°54'0 0.0 1036.2 18.3
2015-Feb-20 16:00N 34°53' W 027°54'1 0.1 1036.3 18.3
2015-Feb-20 08:00N 34°53' W 027°54'1 0.7 1036.3 18.0
2015-Feb-20 07:00N 34°53' W 027°54'0 0.2 1036.0 18.1
2015-Feb-20 06:00N 34°54' W 027°54'1 0.3 1036.2 18.0
2015-Feb-20 03:00N 34°53' W 027°53'2 1.6 1037.2 18.0
2015-Feb-20 02:00N 34°54' W 027°55'1 0.5 1037.6 18.1
2015-Feb-20 00:00N 34°54' W 027°56'2 0.3 1038.4 17.9
2015-Feb-19 16:00N 34°54' W 027°53'0 0.3 1036.3 18.1
2015-Feb-19 15:00N 34°55' W 027°53'0 0.1 1036.9 18.0
2015-Feb-19 14:00N 34°55' W 027°53'2 1.6 1037.7 18.0
2015-Feb-19 13:00N 34°55' W 027°51'1 0.3 1038.5 17.9
2015-Feb-19 08:00N 34°54' W 027°50'1 0.3 1037.1 17.9
2015-Feb-19 04:00N 34°54' W 027°48'0 0.2 1036.4 18.0
2015-Feb-19 03:00N 34°54' W 027°49'0 0.1 1037.0 18.0
2015-Feb-18 23:00N 34°54' W 027°49'0 0.1 1037.4 17.8
2015-Feb-18 21:00N 34°53' W 027°48'   1036.9 17.8
Track history (hours):
 
Tides and Currents Weather Stations Pressure Air Temp Water Temp Dewpoint Dewpoint Depression Visibility Wind Speed Wind Dir Waves Ship Positions

Drifting buoy 13570

Last reported at 2015-Feb-28 17:00 UTC. Time now 2015-Feb-28 19:17 UTC.
Position N 34°03' W 027°15'.

Barometer 1036.1 mb
Water temperature 18.1 ° C

Date/timePositionNaut miles runAvg speedWind from/ knotsBaromVisibWave heightAir tempDewpointWater temp
2015-Feb-28 17:00N 34°03' W 027°15'1 0.6 1036.1 18.1
2015-Feb-28 16:00N 34°03' W 027°15'1 1.0 1036.4 18.1
2015-Feb-28 15:00N 34°04' W 027°16'0 0.0 1037.0 18.1
2015-Feb-28 14:00N 34°04' W 027°16'1 0.7 1037.7 18.1
2015-Feb-28 13:00N 34°04' W 027°17'1 0.8 1038.4 18.1
2015-Feb-28 12:00N 34°05' W 027°17'0 0.3 1038.6 18.1
2015-Feb-28 11:00N 34°05' W 027°17'1 1.4 1038.4 18.1
2015-Feb-28 10:00N 34°07' W 027°18'3 0.7 1038.3 18.1
2015-Feb-28 06:00N 34°09' W 027°19'0 0.0 1036.4 18.1
2015-Feb-28 05:00N 34°09' W 027°19'2 0.8 1036.2 18.1
2015-Feb-28 03:00N 34°10' W 027°21'1 0.3 1037.3 18.1
2015-Feb-27 23:00N 34°11' W 027°22'2 2.2 1038.7 18.1
2015-Feb-27 22:00N 34°13' W 027°23'2 0.4 1038.6 18.1
2015-Feb-27 18:00N 34°14' W 027°24'1 0.8 1037.0 18.1
2015-Feb-27 17:00N 34°14' W 027°25'0 0.0 1037.0 18.1
2015-Feb-27 16:00N 34°14' W 027°25'1 0.7 1037.0 18.1
2015-Feb-27 14:00N 34°15' W 027°26'1 0.8 1037.8 18.1
2015-Feb-27 13:00N 34°15' W 027°27'1 0.5 1038.3 18.1
2015-Feb-27 12:00N 34°15' W 027°27'3 0.7 1038.4 18.1
2015-Feb-27 08:00N 34°18' W 027°27'2 0.9 1036.7 18.1
2015-Feb-27 06:00N 34°19' W 027°29'0 0.0 1036.0 18.2
2015-Feb-27 05:00N 34°19' W 027°29'5 0.5 1036.0 18.2
2015-Feb-26 20:00N 34°22' W 027°33'1 0.8 1036.3 18.2
2015-Feb-26 19:00N 34°22' W 027°34'0 0.3 1035.9 18.2
2015-Feb-26 18:00N 34°22' W 027°34'0 0.0 1035.7 18.2
2015-Feb-26 16:00N 34°22' W 027°34'1 0.7 1035.9 18.1
2015-Feb-26 15:00N 34°22' W 027°35'0 0.0 1036.3 18.1
2015-Feb-26 14:00N 34°22' W 027°35'2 0.9 1037.0 18.1
2015-Feb-26 12:00N 34°24' W 027°35'1 0.9 1037.4 18.1
2015-Feb-26 11:00N 34°25' W 027°36'0 0.1 1037.4 18.0
2015-Feb-26 10:00N 34°25' W 027°36'1 1.2 1037.2 18.1
2015-Feb-26 09:00N 34°25' W 027°37'1 0.6 1036.8 18.1
2015-Feb-26 08:00N 34°25' W 027°37'1 0.4 1036.5 18.1
2015-Feb-26 06:00N 34°25' W 027°38'0 0.0 1036.5 18.2
2015-Feb-26 05:00N 34°25' W 027°38'0 0.2 1036.5 18.2
2015-Feb-26 03:00N 34°26' W 027°38'3 2.6 1037.2 18.2
2015-Feb-26 02:00N 34°28' W 027°38'0 0.0 1037.6 18.2
2015-Feb-26 00:00N 34°28' W 027°38'1 0.6 1037.9 18.2
2015-Feb-25 23:00N 34°29' W 027°39'1 1.3 1038.0 18.3
2015-Feb-25 22:00N 34°30' W 027°40'2 2.3 1037.8 18.3
2015-Feb-25 21:00N 34°29' W 027°43'0 0.0 1037.5 18.3
2015-Feb-25 20:00N 34°29' W 027°43'1 0.5 1037.2 18.3
2015-Feb-25 18:00N 34°28' W 027°42'0 0.0 1036.7 18.3
2015-Feb-25 17:00N 34°28' W 027°42'0 0.3 1036.6 18.3
2015-Feb-25 16:00N 34°28' W 027°42'2 2.2 1036.5 18.3
2015-Feb-25 15:00N 34°29' W 027°40'2 0.8 1036.9 18.3
2015-Feb-25 12:00N 34°30' W 027°42'1 0.6 1038.1 18.3
2015-Feb-25 11:00N 34°31' W 027°42'1 0.5 1038.0 18.3
2015-Feb-25 09:00N 34°31' W 027°43'1 0.5 1037.4 18.3
2015-Feb-25 07:00N 34°31' W 027°44'1 0.5 1036.6 18.3
2015-Feb-25 06:00N 34°31' W 027°45'0 0.0 1036.4 18.3
2015-Feb-25 05:00N 34°31' W 027°45'1 0.5 1036.4 18.3
2015-Feb-25 03:00N 34°32' W 027°46'1 0.3 1037.0 18.3
2015-Feb-25 00:00N 34°33' W 027°46'0 0.4 1037.5 18.3
2015-Feb-24 23:00N 34°32' W 027°47'1 0.9 1037.7 18.3
2015-Feb-24 22:00N 34°32' W 027°47'1 0.7 1037.6 18.3
2015-Feb-24 21:00N 34°32' W 027°47'0 0.0 1037.3 18.3
2015-Feb-24 20:00N 34°32' W 027°47'0 0.0 1036.9 18.3
2015-Feb-24 19:00N 34°32' W 027°47'1 0.5 1036.6 18.4
2015-Feb-24 17:00N 34°33' W 027°48'1 0.9 1036.0 18.4
2015-Feb-24 16:00N 34°32' W 027°48'2 1.6 1035.8 18.4
2015-Feb-24 15:00N 34°34' W 027°48'0 0.1 1036.1 18.4
2015-Feb-24 11:00N 34°34' W 027°49'1 1.0 1036.9 18.3
2015-Feb-24 10:00N 34°34' W 027°50'0 0.0 1036.5 18.3
2015-Feb-24 09:00N 34°34' W 027°50'0 0.2 1035.9 18.3
2015-Feb-24 07:00N 34°34' W 027°50'0 0.2 1034.7 18.3
2015-Feb-24 06:00N 34°34' W 027°50'0 0.4 1034.4 18.3
2015-Feb-24 05:00N 34°34' W 027°50'0 0.2 1034.4 18.3
2015-Feb-24 03:00N 34°34' W 027°50'0 0.0 1035.2 18.3
2015-Feb-24 02:00N 34°34' W 027°50'0 0.2 1035.6 18.3
2015-Feb-24 00:00N 34°35' W 027°50'0 0.3 1035.7 18.3
2015-Feb-23 23:00N 34°35' W 027°50'1 0.7 1035.7 18.4
2015-Feb-23 22:00N 34°35' W 027°49'1 0.3 1035.1 18.4
2015-Feb-23 20:00N 34°35' W 027°50'0 0.2 1034.1 18.5
2015-Feb-23 19:00N 34°36' W 027°50'1 0.4 1033.5 18.5
2015-Feb-23 17:00N 34°36' W 027°50'0 0.1 1033.1 18.7
2015-Feb-23 16:00N 34°36' W 027°50'2 1.8 1033.0 18.8
2015-Feb-23 15:00N 34°38' W 027°51'0 0.1 1033.5 19.0
2015-Feb-23 13:00N 34°38' W 027°51'0 0.5 1034.8 18.4
2015-Feb-23 12:00N 34°38' W 027°51'2 0.9 1034.9 18.3
2015-Feb-23 10:00N 34°37' W 027°53'0 0.0 1034.5 18.2
2015-Feb-23 09:00N 34°37' W 027°53'1 0.4 1034.2 18.2
2015-Feb-23 07:00N 34°38' W 027°52'0 0.2 1033.7 18.3
2015-Feb-23 06:00N 34°38' W 027°52'0 0.1 1033.5 18.3
2015-Feb-23 05:00N 34°38' W 027°52'1 0.6 1033.1 18.3
2015-Feb-23 04:00N 34°38' W 027°52'2 0.4 1033.1 18.3
2015-Feb-22 23:00N 34°40' W 027°52'2 1.9 1034.9 18.3
2015-Feb-22 22:00N 34°38' W 027°53'2 1.9 1035.0 18.3
2015-Feb-22 21:00N 34°40' W 027°53'0 0.0 1034.9 18.3
2015-Feb-22 20:00N 34°40' W 027°53'1 0.8 1034.3 18.3
2015-Feb-22 19:00N 34°41' W 027°53'1 0.4 1034.0 18.3
2015-Feb-22 17:00N 34°42' W 027°53'0 0.2 1034.0 18.3
2015-Feb-22 15:00N 34°42' W 027°53'1 1.0 1034.5 18.3
2015-Feb-22 14:00N 34°43' W 027°54'0 0.5 1034.9 18.3
2015-Feb-22 13:00N 34°42' W 027°54'1 0.6 1035.6 18.3
2015-Feb-22 12:00N 34°42' W 027°55'1 0.3 1035.7 18.3
2015-Feb-22 10:00N 34°42' W 027°54'0 0.2 1035.5 18.3
2015-Feb-22 08:00N 34°42' W 027°54'0 0.2 1034.7 18.3
2015-Feb-22 07:00N 34°42' W 027°53'1 1.3 1034.6 18.3
2015-Feb-22 06:00N 34°43' W 027°53'3 2.7 1034.3 18.3
2015-Feb-22 05:00N 34°46' W 027°54'0 0.0 1034.6 18.3
2015-Feb-22 04:00N 34°46' W 027°54'0 0.0 1035.0 18.3
2015-Feb-22 03:00N 34°46' W 027°54'0 0.0 1035.4 18.3
2015-Feb-22 02:00N 34°46' W 027°54'0 0.2 1035.7 18.3
2015-Feb-22 00:00N 34°45' W 027°54'1 0.6 1036.3 18.4
2015-Feb-21 23:00N 34°46' W 027°55'1 0.1 1036.4 18.3
2015-Feb-21 16:00N 34°46' W 027°55'1 0.1 1035.3 18.4
2015-Feb-21 11:00N 34°47' W 027°54'2 0.5 1037.4 18.2
2015-Feb-21 06:00N 34°49' W 027°52'1 1.1 1035.7 18.2
2015-Feb-21 05:00N 34°50' W 027°52'2 0.4 1035.8 18.2
2015-Feb-20 23:00N 34°52' W 027°54'1 0.7 1037.4 18.2
2015-Feb-20 21:00N 34°53' W 027°54'0 0.0 1037.1 18.2
2015-Feb-20 20:00N 34°53' W 027°54'0 0.3 1037.0 18.2
2015-Feb-20 19:00N 34°53' W 027°54'0 0.0 1036.3 18.2
2015-Feb-20 18:00N 34°53' W 027°54'0 0.2 1036.3 18.3
2015-Feb-20 17:00N 34°53' W 027°54'0 0.0 1036.2 18.3
2015-Feb-20 16:00N 34°53' W 027°54'1 0.1 1036.3 18.3
2015-Feb-20 08:00N 34°53' W 027°54'1 0.7 1036.3 18.0
2015-Feb-20 07:00N 34°53' W 027°54'0 0.2 1036.0 18.1
2015-Feb-20 06:00N 34°54' W 027°54'1 0.3 1036.2 18.0
2015-Feb-20 03:00N 34°53' W 027°53'2 1.6 1037.2 18.0
2015-Feb-20 02:00N 34°54' W 027°55'1 0.5 1037.6 18.1
2015-Feb-20 00:00N 34°54' W 027°56'2 0.3 1038.4 17.9
2015-Feb-19 16:00N 34°54' W 027°53'0 0.3 1036.3 18.1
2015-Feb-19 15:00N 34°55' W 027°53'0 0.1 1036.9 18.0
2015-Feb-19 14:00N 34°55' W 027°53'2 1.6 1037.7 18.0
2015-Feb-19 13:00N 34°55' W 027°51'1 0.3 1038.5 17.9
2015-Feb-19 08:00N 34°54' W 027°50'1 0.3 1037.1 17.9
2015-Feb-19 04:00N 34°54' W 027°48'0 0.2 1036.4 18.0
2015-Feb-19 03:00N 34°54' W 027°49'0 0.1 1037.0 18.0
2015-Feb-18 23:00N 34°54' W 027°49'0 0.1 1037.4 17.8
2015-Feb-18 21:00N 34°53' W 027°48'   1036.9 17.8

Dump ship's entire track history